Date,TemperatureHighF,TemperatureAvgF,TemperatureLowF,DewpointHighF,DewpointAvgF,DewpointLowF,HumidityHigh,HumidityAvg,HumidityLow,PressureMaxIn,PressureMinIn,WindSpeedMaxMPH,WindSpeedAvgMPH,GustSpeedMaxMPH,PrecipitationSumIn
2013-1-1,47.8,41.4,35.8,47.6,40.1,35.5,99,95,81,30.05,29.50,3,1,14,0.05
2013-1-2,51.4,43.9,35.2,51.2,43.7,35.0,99,99,99,30.32,30.05,3,1,14,0.02
2013-1-3,53.4,51.4,48.2,53.1,51.1,47.9,99,99,99,30.61,30.32,3,2,12,0.00
2013-1-4,51.3,49.7,46.8,50.8,48.6,46.5,99,96,88,30.65,30.60,3,2,14,0.00
2013-1-5,52.0,48.6,43.0,51.7,48.3,42.7,99,99,98,30.59,30.51,3,1,13,0.00
2013-1-6,47.3,44.9,41.7,47.0,44.7,41.5,99,99,99,30.51,30.38,2,0,12,0.00
2013-1-7,46.8,45.2,44.6,46.5,45.0,44.3,99,99,99,30.38,30.30,2,0,7,0.02
2013-1-9,45.9,36.1,30.6,44.8,35.8,30.3,99,99,96,30.13,30.06,0,0,2,0.12
2013-1-10,40.3,35.2,30.2,40.0,35.0,30.0,99,99,99,30.06,29.91,2,0,8,0.02
2013-1-11,44.6,37.3,32.5,44.3,37.0,32.3,99,99,96,30.07,29.96,2,0,5,0.00
2013-1-12,41.2,38.4,34.3,38.6,36.2,32.4,99,92,73,29.96,29.82,6,2,19,0.21
2013-1-13,38.8,35.3,31.3,38.4,32.2,29.8,99,88,76,30.13,29.94,3,1,13,0.00
2013-1-14,36.3,33.4,30.6,36.1,33.2,29.7,99,99,96,30.09,29.62,3,1,12,0.23
2013-1-15,37.0,33.0,26.2,35.0,32.2,26.0,99,97,88,29.86,29.62,4,1,15,0.02
2013-1-16,34.2,28.5,23.5,32.7,28.1,23.3,99,98,92,30.01,29.81,2,0,6,0.00
2013-1-17,31.1,26.0,23.2,30.9,25.8,22.9,99,99,99,30.06,30.01,0,0,2,0.00
2013-1-27,49.6,45.9,45.0,39.2,37.9,36.9,99,91,64,29.62,29.47,6,2,21,0.41
2013-1-28,51.1,46.6,44.6,50.8,42.9,37.8,99,98,92,29.81,29.52,7,3,30,0.20
2013-1-29,56.5,53.1,48.7,56.2,52.8,48.5,99,99,94,29.65,29.56,6,4,29,0.08
2013-1-30,54.3,50.7,46.9,54.0,45.7,38.6,99,85,62,30.04,29.51,8,5,29,0.23
2013-1-31,51.4,48.8,45.5,48.4,43.6,39.4,99,85,69,30.04,29.79,7,4,27,0.08